Time;durP1;ratioP1;P1;durP2;ratioP2;P2;SDS_P1;SDS_P2;PMS_P1;PMS_P2;Temp;Humidity;BMP_temperature;BMP_pressure;BME280_temperature;BME280_humidity;BME280_pressure;Samples;Min_cycle;Max_cycle;Signal;HPM_P1;HPM_P2
2022/03/25 00:00:04;;;;;;;24.10;10.33;;;2.10;29.00;;;;;;5063579;28;46336;-64
2022/03/25 00:02:30;;;;;;;19.83;9.10;;;2.20;28.90;;;;;;5064483;28;46446;-63
2022/03/25 00:04:55;;;;;;;17.00;10.00;;;2.30;29.00;;;;;;5063685;28;46510;-63
2022/03/25 00:07:21;;;;;;;26.50;10.10;;;2.30;28.90;;;;;;5065774;28;46416;-62
2022/03/25 00:09:46;;;;;;;21.60;10.77;;;2.30;29.00;;;;;;5071957;28;46767;-61
2022/03/25 00:12:12;;;;;;;20.80;10.50;;;2.40;28.90;;;;;;5064527;28;46541;-62
2022/03/25 00:14:38;;;;;;;19.83;9.83;;;2.40;29.00;;;;;;5062368;28;46382;-62
2022/03/25 00:17:03;;;;;;;23.50;10.60;;;2.30;29.00;;;;;;5058492;28;47024;-63
2022/03/25 00:19:29;;;;;;;19.67;9.57;;;2.30;29.10;;;;;;5064692;28;46428;-62
2022/03/25 00:21:55;;;;;;;21.90;11.63;;;2.30;29.30;;;;;;5062682;28;46437;-63
2022/03/25 00:24:20;;;;;;;16.83;8.90;;;2.40;29.50;;;;;;5062427;28;46588;-63
2022/03/25 00:26:47;;;;;;;23.00;9.30;;;2.20;29.40;;;;;;5061233;28;46429;-63
2022/03/25 00:29:13;;;;;;;18.77;9.35;;;2.00;29.50;;;;;;5062733;28;45810;-62
2022/03/25 00:31:39;;;;;;;24.35;9.73;;;1.90;29.60;;;;;;5062210;28;46422;-61
2022/03/25 00:34:04;;;;;;;18.53;10.30;;;1.90;29.80;;;;;;5062264;28;46437;-63
2022/03/25 00:36:30;;;;;;;17.10;8.83;;;1.80;29.90;;;;;;5062799;28;46473;-62
2022/03/25 00:38:56;;;;;;;20.80;10.00;;;1.70;29.90;;;;;;5059824;28;46429;-63
2022/03/25 00:41:22;;;;;;;17.77;10.07;;;1.70;30.10;;;;;;5061300;28;46424;-62
2022/03/25 00:43:48;;;;;;;17.08;9.75;;;1.50;30.20;;;;;;5063369;28;46652;-62
2022/03/25 00:46:15;;;;;;;20.03;9.77;;;1.50;30.40;;;;;;5060427;28;47451;-62
2022/03/25 00:48:42;;;;;;;18.80;9.32;;;1.50;30.40;;;;;;5066526;28;46339;-63
2022/03/25 00:51:08;;;;;;;16.63;8.70;;;1.50;30.50;;;;;;5061364;28;46961;-61
2022/03/25 00:53:34;;;;;;;21.35;10.63;;;1.50;30.40;;;;;;5061663;28;46318;-63
2022/03/25 00:56:01;;;;;;;19.83;10.70;;;1.50;30.30;;;;;;5061195;28;46416;-63
2022/03/25 00:58:27;;;;;;;16.55;9.10;;;1.50;30.20;;;;;;5060823;28;46590;-63
2022/03/25 01:00:53;;;;;;;19.90;10.20;;;1.60;30.50;;;;;;5062192;28;46341;-62
2022/03/25 01:03:18;;;;;;;17.25;9.93;;;1.70;30.50;;;;;;5061682;28;46340;-63
2022/03/25 01:05:44;;;;;;;18.33;9.83;;;1.60;30.40;;;;;;5061364;28;47965;-63
2022/03/25 01:08:11;;;;;;;19.73;10.27;;;1.60;30.50;;;;;;5061212;28;46421;-62
2022/03/25 01:10:37;;;;;;;17.88;9.35;;;1.50;30.50;;;;;;5063030;28;45843;-61
2022/03/25 01:13:04;;;;;;;15.60;9.00;;;1.50;31.70;;;;;;5065498;28;46609;-63
2022/03/25 01:15:30;;;;;;;17.75;9.45;;;1.50;30.60;;;;;;5062809;28;46581;-63
2022/03/25 01:17:56;;;;;;;17.95;8.63;;;1.50;30.50;;;;;;5068183;28;45874;-61
2022/03/25 01:20:22;;;;;;;20.85;9.32;;;1.50;30.70;;;;;;5069403;28;46186;-62
2022/03/25 01:22:49;;;;;;;20.23;9.87;;;1.50;30.70;;;;;;5065776;28;46346;-62
2022/03/25 01:25:15;;;;;;;21.48;10.57;;;1.40;30.60;;;;;;5066599;28;47820;-63
2022/03/25 01:27:41;;;;;;;17.77;9.77;;;1.40;30.70;;;;;;5062371;28;45835;-63
2022/03/25 01:30:07;;;;;;;18.73;9.40;;;1.40;30.80;;;;;;5063182;28;46392;-62
2022/03/25 01:32:34;;;;;;;20.10;10.15;;;1.40;30.90;;;;;;5065507;28;46386;-63
2022/03/25 01:35:00;;;;;;;18.48;9.00;;;1.40;31.00;;;;;;5070279;28;46400;-65
2022/03/25 01:37:25;;;;;;;16.67;9.73;;;1.30;30.90;;;;;;5060657;28;46347;-63
2022/03/25 01:39:51;;;;;;;18.87;9.17;;;1.30;30.90;;;;;;5061581;28;46433;-62
2022/03/25 01:42:28;;;;;;;19.77;10.07;;;1.30;31.10;;;;;;5065573;28;46532;-63
2022/03/25 01:44:53;;;;;;;16.05;9.15;;;1.30;31.20;;;;;;5063030;28;47393;-64
2022/03/25 01:47:30;;;;;;;25.70;10.27;;;1.20;31.20;;;;;;5058054;28;45820;-61
2022/03/25 01:49:57;;;;;;;20.95;8.20;;;1.30;31.50;;;;;;5060082;28;46235;-63
2022/03/25 01:52:23;;;;;;;17.05;8.68;;;1.20;31.50;;;;;;5061692;28;46443;-63
2022/03/25 01:54:49;;;;;;;17.20;9.03;;;1.20;31.50;;;;;;5062407;28;47127;-62
2022/03/25 01:57:15;;;;;;;14.23;8.30;;;1.10;31.70;;;;;;5070275;28;46322;-63
2022/03/25 01:59:40;;;;;;;20.13;8.60;;;1.10;31.80;;;;;;5061848;28;46488;-62
2022/03/25 02:02:08;;;;;;;22.40;8.60;;;1.10;31.80;;;;;;5064803;28;46751;-62
2022/03/25 02:04:33;;;;;;;14.57;8.45;;;1.00;31.60;;;;;;5060844;28;46563;-62
2022/03/25 02:06:59;;;;;;;19.10;9.63;;;1.10;31.80;;;;;;5061280;28;46388;-62
2022/03/25 02:09:26;;;;;;;15.13;9.00;;;1.10;31.70;;;;;;5060535;28;46455;-61
2022/03/25 02:11:51;;;;;;;16.65;9.25;;;1.10;31.70;;;;;;5062997;28;46397;-63
2022/03/25 02:14:17;;;;;;;17.17;9.13;;;1.10;33.00;;;;;;5064196;28;46369;-61
2022/03/25 02:16:45;;;;;;;15.90;8.07;;;1.00;31.70;;;;;;5059872;28;46437;-62
2022/03/25 02:19:12;;;;;;;17.77;8.10;;;1.00;31.60;;;;;;5062740;28;46382;-62
2022/03/25 02:21:39;;;;;;;15.15;8.55;;;1.00;31.70;;;;;;5059944;28;46535;-61
2022/03/25 02:24:06;;;;;;;17.02;8.57;;;0.90;31.60;;;;;;5054091;28;46832;-63
2022/03/25 02:26:34;;;;;;;16.20;8.88;;;0.90;31.60;;;;;;5060342;28;46249;-62
2022/03/25 02:29:00;;;;;;;17.95;8.73;;;0.90;31.60;;;;;;5064040;28;45912;-61
2022/03/25 02:31:27;;;;;;;15.35;9.43;;;1.00;31.70;;;;;;5060356;28;46396;-62
2022/03/25 02:33:54;;;;;;;16.27;7.93;;;1.00;31.70;;;;;;5060942;28;46384;-60
2022/03/25 02:36:19;;;;;;;15.75;8.85;;;1.00;31.70;;;;;;5059115;28;46309;-60
2022/03/25 02:38:45;;;;;;;16.90;8.57;;;1.00;31.70;;;;;;5063536;27;46376;-63
2022/03/25 02:41:11;;;;;;;18.67;9.23;;;1.00;31.90;;;;;;5062466;28;46385;-63
2022/03/25 02:43:36;;;;;;;16.90;9.00;;;0.90;32.10;;;;;;5065057;28;46108;-61
2022/03/25 02:46:02;;;;;;;13.63;7.87;;;0.90;32.40;;;;;;5069341;28;46351;-62
2022/03/25 02:48:28;;;;;;;17.67;8.50;;;0.80;32.50;;;;;;5071469;28;46138;-61
2022/03/25 02:50:53;;;;;;;18.50;7.90;;;0.70;32.60;;;;;;5065973;28;45904;-62
2022/03/25 02:53:19;;;;;;;16.43;8.33;;;0.70;32.80;;;;;;5065519;28;47310;-61
2022/03/25 02:55:45;;;;;;;16.00;9.00;;;0.60;32.90;;;;;;5062732;28;46357;-61
2022/03/25 02:58:11;;;;;;;18.50;8.27;;;0.60;33.00;;;;;;5060907;28;45806;-61
2022/03/25 03:00:37;;;;;;;15.60;8.82;;;0.60;34.30;;;;;;5063916;28;46623;-64
2022/03/25 03:03:03;;;;;;;15.57;8.50;;;0.50;33.00;;;;;;5062742;28;46593;-61
2022/03/25 03:05:29;;;;;;;14.97;8.43;;;0.50;33.10;;;;;;5062727;28;46333;-62
2022/03/25 03:07:55;;;;;;;14.60;7.75;;;0.50;33.20;;;;;;5061261;28;46490;-62
2022/03/25 03:10:21;;;;;;;17.00;8.70;;;0.50;33.10;;;;;;5062687;28;46586;-61
2022/03/25 03:12:47;;;;;;;17.23;9.30;;;0.50;33.20;;;;;;5062266;28;46192;-61
2022/03/25 03:15:17;;;;;;;19.03;8.33;;;0.50;33.20;;;;;;5060678;28;46508;-61
2022/03/25 03:17:46;;;;;;;19.85;8.38;;;0.50;33.20;;;;;;5059648;28;46391;-62
2022/03/25 03:20:14;;;;;;;16.98;7.95;;;0.50;33.20;;;;;;5063149;28;46360;-63
2022/03/25 03:22:40;;;;;;;14.45;8.35;;;0.50;33.30;;;;;;5061175;28;47253;-63
2022/03/25 03:25:06;;;;;;;17.00;8.38;;;0.50;33.30;;;;;;5057816;28;46491;-62
2022/03/25 03:27:32;;;;;;;14.07;7.75;;;0.60;33.40;;;;;;5057833;28;46008;-63
2022/03/25 03:29:58;;;;;;;19.30;7.73;;;0.60;33.40;;;;;;5061316;28;46588;-61
2022/03/25 03:32:25;;;;;;;15.80;8.20;;;0.50;33.40;;;;;;5060679;28;46312;-62
2022/03/25 03:34:53;;;;;;;14.18;7.93;;;0.50;33.50;;;;;;5062225;28;46291;-64
2022/03/25 03:37:19;;;;;;;13.52;8.13;;;0.50;33.40;;;;;;5063056;28;45910;-63
2022/03/25 03:39:45;;;;;;;18.80;9.30;;;0.60;33.60;;;;;;5062585;28;46585;-62
2022/03/25 03:42:11;;;;;;;14.63;7.93;;;0.60;33.50;;;;;;5062268;28;46498;-62
2022/03/25 03:44:38;;;;;;;24.80;8.27;;;0.60;33.60;;;;;;5062098;28;46564;-62
2022/03/25 03:47:06;;;;;;;16.08;7.40;;;0.50;33.60;;;;;;5061786;28;46361;-62
2022/03/25 03:49:32;;;;;;;18.23;9.05;;;0.50;33.80;;;;;;5062213;28;46326;-62
2022/03/25 03:51:57;;;;;;;16.40;9.25;;;0.50;34.00;;;;;;5061801;28;46224;-62
2022/03/25 03:54:23;;;;;;;17.03;8.40;;;0.40;34.00;;;;;;5063222;28;46443;-62
2022/03/25 03:56:48;;;;;;;15.47;8.50;;;0.40;34.10;;;;;;5062983;28;45809;-61
2022/03/25 03:59:14;;;;;;;13.27;7.80;;;0.40;34.20;;;;;;5064398;28;46574;-62
2022/03/25 04:01:40;;;;;;;13.10;8.07;;;0.40;34.40;;;;;;5063506;28;46486;-62
2022/03/25 04:04:06;;;;;;;17.63;9.20;;;0.40;34.10;;;;;;5067165;28;46508;-63
2022/03/25 04:06:32;;;;;;;13.30;8.37;;;0.50;34.20;;;;;;5062006;28;46275;-63
2022/03/25 04:08:57;;;;;;;23.58;9.50;;;0.50;34.10;;;;;;5064432;28;46460;-62
2022/03/25 04:11:23;;;;;;;22.20;10.90;;;0.50;34.20;;;;;;5062787;28;47021;-62
2022/03/25 04:13:49;;;;;;;18.40;10.60;;;0.60;34.10;;;;;;5066241;28;46319;-63
2022/03/25 04:16:15;;;;;;;20.60;10.60;;;0.60;34.20;;;;;;5062627;28;46322;-64
2022/03/25 04:18:41;;;;;;;19.20;10.30;;;0.60;34.40;;;;;;5069469;28;45969;-63
2022/03/25 04:21:07;;;;;;;16.30;9.10;;;0.60;34.30;;;;;;5070931;28;46385;-63
2022/03/25 04:23:32;;;;;;;25.80;9.07;;;0.50;34.40;;;;;;5064533;28;46374;-64
2022/03/25 04:25:58;;;;;;;15.37;8.50;;;0.50;34.50;;;;;;5063398;28;46870;-63
2022/03/25 04:28:23;;;;;;;16.30;8.80;;;0.50;34.60;;;;;;5062016;28;45987;-64
2022/03/25 04:30:49;;;;;;;17.00;8.63;;;0.40;34.80;;;;;;5063880;28;46444;-64
2022/03/25 04:33:15;;;;;;;15.17;8.43;;;0.30;34.80;;;;;;5062616;28;46480;-63
2022/03/25 04:35:41;;;;;;;17.37;8.60;;;0.20;34.90;;;;;;5061928;28;45858;-61
2022/03/25 04:38:06;;;;;;;19.23;8.77;;;0.10;34.90;;;;;;5061551;28;46350;-62
2022/03/25 04:40:32;;;;;;;14.97;8.83;;;0.10;35.00;;;;;;5066536;28;47018;-62
2022/03/25 04:43:00;;;;;;;17.05;9.55;;;0.00;34.90;;;;;;5066753;28;46643;-62
2022/03/25 04:45:27;;;;;;;16.98;8.75;;;0.00;34.90;;;;;;5066034;28;46619;-63
2022/03/25 04:47:53;;;;;;;15.85;8.02;;;0.00;34.90;;;;;;5061459;28;46056;-61
2022/03/25 04:50:19;;;;;;;15.57;8.95;;;0.00;35.00;;;;;;5063981;28;46288;-63
2022/03/25 04:52:45;;;;;;;20.93;9.17;;;0.00;34.90;;;;;;5063598;28;46363;-63
2022/03/25 04:55:11;;;;;;;24.95;9.52;;;0.10;35.10;;;;;;5061935;28;46339;-63
2022/03/25 04:57:38;;;;;;;13.85;7.40;;;0.10;35.00;;;;;;5061704;28;45920;-62
2022/03/25 05:00:04;;;;;;;16.13;8.07;;;0.10;35.00;;;;;;5058936;28;47055;-62
2022/03/25 05:02:30;;;;;;;14.82;7.90;;;0.10;35.10;;;;;;5062162;27;46629;-61
2022/03/25 05:04:55;;;;;;;12.80;7.50;;;0.20;35.10;;;;;;5061251;28;46278;-63
2022/03/25 05:07:22;;;;;;;19.07;8.20;;;0.00;35.10;;;;;;5061493;28;46449;-63
2022/03/25 05:09:48;;;;;;;18.35;8.45;;;0.00;35.10;;;;;;5067285;28;46312;-63
2022/03/25 05:12:14;;;;;;;12.73;7.80;;;0.00;35.00;;;;;;5067826;28;46501;-63
2022/03/25 05:14:40;;;;;;;17.60;8.55;;;0.10;35.20;;;;;;5062499;28;46441;-61
2022/03/25 05:17:06;;;;;;;14.15;8.20;;;0.00;35.10;;;;;;5065131;28;46471;-63
2022/03/25 05:19:32;;;;;;;16.60;8.60;;;0.10;35.20;;;;;;5067054;28;46459;-62
2022/03/25 05:21:58;;;;;;;22.38;8.05;;;0.10;35.10;;;;;;5063103;28;46362;-62
2022/03/25 05:24:25;;;;;;;17.27;8.53;;;0.10;35.10;;;;;;5063143;28;46671;-62
2022/03/25 05:26:51;;;;;;;16.25;7.95;;;0.10;35.10;;;;;;5060875;28;46326;-61
2022/03/25 05:29:16;;;;;;;14.83;7.80;;;0.10;35.10;;;;;;5060981;28;46691;-63
2022/03/25 05:31:42;;;;;;;18.07;8.10;;;0.10;35.00;;;;;;5062429;28;46409;-61
2022/03/25 05:34:08;;;;;;;13.47;7.70;;;0.20;35.10;;;;;;5060904;28;46423;-62
2022/03/25 05:36:34;;;;;;;16.40;8.47;;;0.30;35.20;;;;;;5061023;28;46380;-63
2022/03/25 05:39:00;;;;;;;20.20;9.05;;;0.50;35.40;;;;;;5062185;28;46215;-62
2022/03/25 05:41:27;;;;;;;24.00;8.48;;;0.70;35.50;;;;;;5061196;28;46489;-63
2022/03/25 05:43:53;;;;;;;14.80;7.68;;;1.00;35.70;;;;;;5061274;28;46289;-62
2022/03/25 05:46:19;;;;;;;17.17;8.23;;;1.30;35.80;;;;;;5061369;28;46373;-63
2022/03/25 05:48:45;;;;;;;19.80;8.47;;;1.60;35.70;;;;;;5060975;28;46313;-63
2022/03/25 05:51:11;;;;;;;15.88;7.82;;;1.90;35.60;;;;;;5062923;28;46279;-61
2022/03/25 05:53:40;;;;;;;21.27;8.13;;;2.20;35.30;;;;;;5062607;28;46376;-63
2022/03/25 05:56:06;;;;;;;20.13;8.57;;;2.30;34.70;;;;;;5062567;28;45834;-61
2022/03/25 05:58:33;;;;;;;16.17;8.70;;;2.40;34.00;;;;;;5064525;28;46386;-61
2022/03/25 06:00:59;;;;;;;15.32;8.50;;;2.40;33.70;;;;;;5060931;28;46294;-62
2022/03/25 06:03:25;;;;;;;17.08;9.73;;;2.40;33.80;;;;;;5030786;28;45931;-64
2022/03/25 06:05:51;;;;;;;16.33;9.97;;;2.40;33.90;;;;;;5072434;28;46309;-62
2022/03/25 06:08:16;;;;;;;17.90;9.37;;;2.40;34.10;;;;;;5064143;28;47076;-61
2022/03/25 06:10:42;;;;;;;15.30;8.10;;;2.50;34.50;;;;;;5061109;28;46526;-62
2022/03/25 06:13:08;;;;;;;17.40;9.10;;;2.60;34.50;;;;;;5072352;28;46373;-62
2022/03/25 06:15:33;;;;;;;15.50;8.53;;;3.00;33.50;;;;;;5063928;28;46578;-62
2022/03/25 06:17:59;;;;;;;17.47;9.03;;;3.10;33.40;;;;;;5061143;28;46577;-62
2022/03/25 06:20:27;;;;;;;15.63;9.50;;;3.10;33.40;;;;;;5064321;28;46443;-62
2022/03/25 06:22:53;;;;;;;21.25;9.68;;;3.10;33.40;;;;;;5064549;28;46514;-61
2022/03/25 06:25:18;;;;;;;16.17;9.70;;;3.10;33.40;;;;;;5062885;28;46330;-63
2022/03/25 06:27:52;;;;;;;21.57;9.43;;;3.30;33.60;;;;;;5069208;28;46387;-63
2022/03/25 06:30:22;;;;;;;17.38;9.98;;;3.50;33.90;;;;;;5066764;28;45865;-61
2022/03/25 06:32:48;;;;;;;19.40;9.80;;;3.70;33.50;;;;;;5061053;28;46357;-62
2022/03/25 06:35:14;;;;;;;23.77;9.53;;;4.00;33.50;;;;;;5053988;28;46413;-62
2022/03/25 06:37:40;;;;;;;21.05;10.25;;;4.20;33.50;;;;;;5062603;28;46415;-64
2022/03/25 06:40:07;;;;;;;18.88;10.10;;;4.30;33.40;;;;;;5062512;28;45929;-63
2022/03/25 06:42:41;;;;;;;26.17;11.48;;;4.50;33.60;;;;;;5060750;28;46325;-63
2022/03/25 06:45:08;;;;;;;27.53;11.87;;;4.70;33.70;;;;;;5059117;28;46617;-63
2022/03/25 06:47:34;;;;;;;23.07;12.57;;;4.90;33.70;;;;;;5059671;28;47130;-62
2022/03/25 06:50:02;;;;;;;25.03;12.00;;;5.00;33.50;;;;;;5031622;28;46417;-63
2022/03/25 06:52:28;;;;;;;26.93;14.40;;;5.30;33.70;;;;;;5056430;28;46419;-63
2022/03/25 06:54:54;;;;;;;31.50;14.67;;;5.50;33.60;;;;;;5057935;28;46997;-62
2022/03/25 06:57:20;;;;;;;21.47;11.73;;;5.80;33.80;;;;;;5058356;28;46538;-63
2022/03/25 06:59:46;;;;;;;23.87;13.07;;;6.00;33.80;;;;;;5057556;28;46428;-62
2022/03/25 07:02:15;;;;;;;22.00;11.90;;;6.20;33.80;;;;;;5061173;28;46428;-64
2022/03/25 07:04:41;;;;;;;23.87;12.00;;;6.40;33.70;;;;;;5060595;28;46441;-63
2022/03/25 07:07:08;;;;;;;18.50;10.77;;;6.50;33.60;;;;;;5058977;28;46656;-66
2022/03/25 07:09:35;;;;;;;23.47;11.60;;;6.70;33.60;;;;;;5057601;28;46008;-62
2022/03/25 07:12:05;;;;;;;18.83;11.80;;;6.90;33.50;;;;;;5062176;28;46507;-60
2022/03/25 07:14:30;;;;;;;26.13;10.90;;;7.10;33.30;;;;;;5060489;28;46639;-63
2022/03/25 07:16:56;;;;;;;18.03;10.40;;;7.30;33.30;;;;;;5060858;28;47269;-63
2022/03/25 07:19:25;;;;;;;20.70;11.20;;;7.40;33.30;;;;;;5058888;28;46396;-63
2022/03/25 07:21:52;;;;;;;22.60;12.50;;;7.60;33.20;;;;;;5060746;28;46460;-63
2022/03/25 07:24:18;;;;;;;16.97;11.33;;;7.80;33.30;;;;;;5058745;28;46551;-62
2022/03/25 07:26:44;;;;;;;24.57;14.53;;;7.90;33.20;;;;;;5066321;28;46398;-61
2022/03/25 07:29:11;;;;;;;29.30;16.13;;;8.10;33.10;;;;;;5064171;28;46422;-62
2022/03/25 07:31:37;;;;;;;25.80;13.67;;;8.30;33.00;;;;;;5062261;28;46746;-62
2022/03/25 07:34:02;;;;;;;24.03;12.60;;;8.50;33.00;;;;;;5059540;28;46577;-63
2022/03/25 07:36:28;;;;;;;23.10;12.30;;;8.70;32.80;;;;;;5060900;28;46339;-64
2022/03/25 07:38:53;;;;;;;24.70;13.13;;;8.90;32.70;;;;;;5066629;28;46378;-63
2022/03/25 07:41:20;;;;;;;23.83;12.07;;;9.10;32.30;;;;;;5063754;28;46494;-64
2022/03/25 07:43:46;;;;;;;20.23;12.23;;;9.40;32.20;;;;;;5062522;28;46530;-63
2022/03/25 07:46:12;;;;;;;17.57;11.10;;;9.50;32.00;;;;;;5062381;28;47602;-62
2022/03/25 07:48:37;;;;;;;21.83;12.10;;;9.70;31.70;;;;;;5064120;28;46389;-62
2022/03/25 07:51:03;;;;;;;23.70;12.53;;;9.90;31.50;;;;;;5067379;28;46475;-63
2022/03/25 07:53:31;;;;;;;22.60;13.23;;;10.10;30.30;;;;;;5061872;28;46319;-62
2022/03/25 07:55:57;;;;;;;27.40;14.23;;;10.30;30.00;;;;;;5061962;28;46517;-62
2022/03/25 07:58:23;;;;;;;25.53;14.27;;;10.50;29.70;;;;;;5062413;28;46377;-63
2022/03/25 08:00:49;;;;;;;32.97;14.27;;;10.40;29.20;;;;;;5062073;28;46392;-65
2022/03/25 08:03:16;;;;;;;27.27;14.77;;;10.40;29.00;;;;;;5065912;28;46433;-64
2022/03/25 08:05:42;;;;;;;30.77;15.63;;;10.50;29.00;;;;;;5069790;28;46611;-63
2022/03/25 08:08:09;;;;;;;30.23;15.30;;;10.60;28.70;;;;;;5060893;28;46412;-64
2022/03/25 08:10:36;;;;;;;28.93;16.13;;;10.60;28.30;;;;;;5062578;28;46484;-64
2022/03/25 08:13:02;;;;;;;29.90;16.00;;;10.60;27.90;;;;;;5060904;28;46507;-63
2022/03/25 08:15:29;;;;;;;32.33;16.70;;;10.60;27.80;;;;;;5060393;28;47261;-65
2022/03/25 08:18:00;;;;;;;27.93;15.70;;;10.80;27.70;;;;;;5060058;28;46792;-64
2022/03/25 08:20:29;;;;;;;35.73;16.60;;;11.00;27.10;;;;;;5060447;28;46429;-64
2022/03/25 08:22:59;;;;;;;38.13;17.70;;;11.10;26.90;;;;;;5061165;28;46540;-64
2022/03/25 08:28:11;;;;;;;30.90;16.70;;;11.20;27.10;;;;;;5057588;28;46386;-62
2022/03/25 08:30:38;;;;;;;29.10;17.70;;;11.30;26.70;;;;;;5061329;28;46354;-63
2022/03/25 08:33:05;;;;;;;28.87;17.27;;;11.60;26.20;;;;;;5061520;28;46729;-62
2022/03/25 08:35:30;;;;;;;29.63;17.60;;;11.60;26.10;;;;;;5060109;28;47306;-61
2022/03/25 08:37:57;;;;;;;28.60;17.27;;;11.60;26.00;;;;;;5061472;28;46448;-60
2022/03/25 08:40:25;;;;;;;36.60;16.37;;;11.70;25.90;;;;;;5063253;28;46457;-62
2022/03/25 08:42:51;;;;;;;32.80;16.17;;;11.90;25.60;;;;;;5066554;28;46803;-62
2022/03/25 08:45:17;;;;;;;33.43;18.87;;;11.90;25.40;;;;;;5064698;28;46975;-62
2022/03/25 08:47:44;;;;;;;31.97;17.97;;;11.90;24.90;;;;;;5058603;28;46275;-62
2022/03/25 08:50:12;;;;;;;34.40;18.20;;;12.00;24.90;;;;;;5070997;28;46421;-62
2022/03/25 08:52:39;;;;;;;33.13;18.73;;;12.10;24.40;;;;;;5067126;28;46518;-63
2022/03/25 08:55:06;;;;;;;36.03;19.83;;;12.20;24.40;;;;;;5058705;28;46680;-65
2022/03/25 08:57:32;;;;;;;35.60;18.70;;;12.30;24.20;;;;;;5071581;28;46275;-63
2022/03/25 08:59:57;;;;;;;34.93;17.90;;;12.30;24.10;;;;;;5070866;28;46325;-61
2022/03/25 09:02:23;;;;;;;33.23;18.47;;;12.50;24.00;;;;;;5063416;28;46245;-63
2022/03/25 09:04:49;;;;;;;30.23;17.43;;;12.60;23.70;;;;;;5060333;28;46664;-63
2022/03/25 09:07:15;;;;;;;34.33;19.03;;;12.60;23.50;;;;;;5059700;28;46567;-62
2022/03/25 09:09:40;;;;;;;40.87;19.67;;;12.80;23.50;;;;;;5063242;28;46389;-63
2022/03/25 09:12:08;;;;;;;34.20;19.40;;;12.90;23.30;;;;;;5062558;28;46630;-64
2022/03/25 09:14:33;;;;;;;36.17;19.60;;;13.10;23.00;;;;;;5067775;28;46296;-63
2022/03/25 09:16:59;;;;;;;37.23;19.63;;;13.20;22.80;;;;;;5062059;28;46287;-63
2022/03/25 09:19:25;;;;;;;32.30;19.90;;;13.30;22.70;;;;;;5061170;28;46385;-64
2022/03/25 09:21:50;;;;;;;34.10;18.10;;;13.30;22.60;;;;;;5060548;28;46617;-63
2022/03/25 09:24:16;;;;;;;34.43;20.27;;;13.40;22.50;;;;;;5059449;28;47188;-65
2022/03/25 09:26:42;;;;;;;39.03;19.80;;;13.50;22.20;;;;;;5061833;28;46549;-63
2022/03/25 09:29:08;;;;;;;36.27;19.77;;;13.70;22.00;;;;;;5059779;28;45858;-63
2022/03/25 09:31:33;;;;;;;32.33;19.37;;;13.90;22.10;;;;;;5056459;28;46682;-63
2022/03/25 09:36:44;;;;;;;42.63;21.47;;;13.90;21.70;;;;;;5059304;28;46697;-63
2022/03/25 09:39:10;;;;;;;35.80;18.83;;;14.10;21.70;;;;;;5060467;28;46523;-63
2022/03/25 09:41:36;;;;;;;39.87;21.73;;;14.20;21.40;;;;;;5063815;28;46774;-63
2022/03/25 09:44:03;;;;;;;36.30;19.30;;;14.20;21.30;;;;;;5062519;28;46534;-64
2022/03/25 09:46:29;;;;;;;38.77;20.50;;;14.20;21.40;;;;;;5066213;28;46425;-65
2022/03/25 09:48:54;;;;;;;40.10;20.40;;;14.40;21.30;;;;;;5061053;28;46350;-64
2022/03/25 09:51:20;;;;;;;35.40;19.90;;;14.50;21.10;;;;;;5060839;28;46624;-63
2022/03/25 09:53:47;;;;;;;36.87;20.27;;;14.50;20.70;;;;;;5060204;28;46423;-63
2022/03/25 09:56:15;;;;;;;34.20;19.83;;;14.60;20.70;;;;;;5059965;28;46404;-63
2022/03/25 09:58:41;;;;;;;39.00;20.77;;;14.70;20.60;;;;;;5061409;28;46594;-63
2022/03/25 10:01:06;;;;;;;37.13;21.63;;;14.70;19.90;;;;;;5062671;28;46378;-63
2022/03/25 10:03:37;;;;;;;41.30;22.37;;;14.70;20.00;;;;;;5061795;28;46726;-63
2022/03/25 10:06:07;;;;;;;38.00;22.13;;;14.80;19.90;;;;;;5059043;28;46383;-63
2022/03/25 10:08:33;;;;;;;36.73;22.17;;;15.00;19.60;;;;;;5062166;28;46509;-63
2022/03/25 10:11:28;;;;;;;39.97;20.83;;;15.10;19.20;;;;;;5061915;28;46540;-63
2022/03/25 10:14:15;;;;;;;36.40;20.40;;;15.20;19.00;;;;;;5059595;28;46362;-62
2022/03/25 10:16:49;;;;;;;36.13;20.93;;;15.30;19.10;;;;;;5063415;28;46355;-62
2022/03/25 10:19:22;;;;;;;39.93;20.77;;;15.50;18.90;;;;;;5059787;28;46676;-62
2022/03/25 10:22:02;;;;;;;35.37;20.80;;;15.60;18.40;;;;;;5060417;28;46552;-63
2022/03/25 10:24:49;;;;;;;42.53;22.67;;;15.70;18.00;;;;;;5059820;28;47399;-64
2022/03/25 10:27:25;;;;;;;37.87;20.27;;;15.90;18.10;;;;;;5059564;28;46661;-62
2022/03/25 10:29:54;;;;;;;37.47;21.83;;;16.00;17.60;;;;;;5061295;28;46760;-62
2022/03/25 10:32:25;;;;;;;42.30;22.80;;;15.90;17.80;;;;;;5061779;28;47029;-61
2022/03/25 10:35:07;;;;;;;38.97;21.40;;;15.90;17.50;;;;;;5062399;28;47319;-63
2022/03/25 10:37:33;;;;;;;36.70;21.80;;;16.00;16.90;;;;;;5050285;28;46458;-64
2022/03/25 10:39:59;;;;;;;37.93;22.80;;;16.10;16.40;;;;;;5065363;28;46583;-61
2022/03/25 10:42:24;;;;;;;36.57;22.40;;;16.10;16.00;;;;;;5068932;28;45922;-61
2022/03/25 10:44:50;;;;;;;48.50;23.27;;;16.10;16.30;;;;;;5037948;28;47760;-61
2022/03/25 10:47:16;;;;;;;42.70;23.00;;;16.10;15.90;;;;;;5053431;28;46461;-62
2022/03/25 10:49:44;;;;;;;40.13;22.23;;;16.20;15.80;;;;;;5069576;28;46385;-63
2022/03/25 10:52:30;;;;;;;42.00;20.80;;;16.20;15.40;;;;;;5067661;28;46387;-61
2022/03/25 10:55:18;;;;;;;40.63;21.93;;;16.10;14.80;;;;;;5060943;28;46457;-64
2022/03/25 10:57:49;;;;;;;37.30;20.83;;;16.20;14.80;;;;;;5061721;28;45769;-61
2022/03/25 11:00:15;;;;;;;37.53;21.30;;;16.20;14.50;;;;;;5059721;28;46498;-61
2022/03/25 11:02:41;;;;;;;36.30;21.73;;;16.20;14.70;;;;;;5065644;28;46338;-61
2022/03/25 11:05:09;;;;;;;38.33;22.50;;;16.20;14.70;;;;;;5062135;28;47442;-63
2022/03/25 11:07:36;;;;;;;38.53;21.10;;;16.30;14.80;;;;;;5067746;28;45912;-62
2022/03/25 11:10:02;;;;;;;36.80;22.03;;;16.40;14.60;;;;;;5065157;28;46339;-62
2022/03/25 11:12:30;;;;;;;42.47;22.50;;;16.40;14.30;;;;;;5071709;28;46303;-63
2022/03/25 11:14:58;;;;;;;40.30;23.17;;;16.40;14.30;;;;;;5072255;28;48302;-63
2022/03/25 11:17:33;;;;;;;34.00;21.80;;;16.40;14.60;;;;;;5061594;28;46435;-62
2022/03/25 11:20:00;;;;;;;35.77;20.50;;;16.50;14.40;;;;;;5057420;28;46361;-63
2022/03/25 11:22:26;;;;;;;41.50;21.13;;;16.50;14.10;;;;;;5063089;28;46501;-63
2022/03/25 11:24:57;;;;;;;39.83;21.77;;;16.50;13.80;;;;;;5061818;28;46661;-64
2022/03/25 11:27:30;;;;;;;34.37;21.10;;;16.50;13.30;;;;;;5059690;28;46353;-63
2022/03/25 11:30:04;;;;;;;46.73;21.37;;;16.60;13.20;;;;;;5064273;28;45787;-65
2022/03/25 11:32:30;;;;;;;48.40;23.90;;;16.60;13.40;;;;;;5064539;28;46389;-63
2022/03/25 11:34:55;;;;;;;38.00;21.80;;;16.60;13.10;;;;;;5059598;28;47196;-60
2022/03/25 11:37:28;;;;;;;37.37;21.37;;;16.80;13.40;;;;;;5065320;28;46312;-62
2022/03/25 11:40:13;;;;;;;40.93;21.07;;;16.80;13.50;;;;;;5063934;28;45877;-63
2022/03/25 11:42:46;;;;;;;34.10;20.07;;;16.80;13.50;;;;;;5059209;28;45939;-63
2022/03/25 11:45:21;;;;;;;36.20;21.13;;;16.80;13.50;;;;;;5055471;28;47047;-63
2022/03/25 11:48:09;;;;;;;37.93;20.73;;;16.80;13.30;;;;;;5059722;28;46461;-63
2022/03/25 11:50:43;;;;;;;48.13;23.13;;;16.90;13.20;;;;;;5066770;28;46431;-63
2022/03/25 11:53:11;;;;;;;42.63;22.93;;;17.00;13.30;;;;;;5060228;28;46392;-63
2022/03/25 11:55:53;;;;;;;34.70;20.07;;;17.00;13.30;;;;;;5062793;28;46456;-63
2022/03/25 11:58:19;;;;;;;37.57;20.10;;;17.10;13.00;;;;;;5061347;28;45788;-63
2022/03/25 12:00:49;;;;;;;36.37;20.93;;;17.20;13.20;;;;;;5067945;28;46456;-63
2022/03/25 12:03:15;;;;;;;36.57;20.90;;;17.20;11.90;;;;;;5067155;28;46379;-63
2022/03/25 12:06:02;;;;;;;41.27;21.30;;;17.20;13.40;;;;;;5064031;28;46664;-63
2022/03/25 12:08:30;;;;;;;38.63;22.80;;;17.20;12.70;;;;;;5060912;28;46449;-63
2022/03/25 12:10:56;;;;;;;41.40;23.93;;;17.10;13.00;;;;;;5062890;28;46324;-63
2022/03/25 12:13:23;;;;;;;40.33;23.57;;;17.10;13.20;;;;;;5061435;28;46267;-63
2022/03/25 12:15:52;;;;;;;39.97;20.53;;;17.20;13.30;;;;;;5068022;28;46379;-63
2022/03/25 12:18:40;;;;;;;44.63;19.20;;;17.20;12.90;;;;;;5064286;28;46453;-63
2022/03/25 12:21:21;;;;;;;39.70;22.23;;;17.30;12.70;;;;;;5062460;28;46772;-63
2022/03/25 12:24:01;;;;;;;35.40;20.60;;;17.40;12.40;;;;;;5063914;28;45982;-64
2022/03/25 12:26:38;;;;;;;33.87;20.13;;;17.40;12.10;;;;;;5064301;28;46362;-62
2022/03/25 12:29:06;;;;;;;41.10;22.10;;;17.30;11.50;;;;;;5060025;28;46433;-63
2022/03/25 12:31:33;;;;;;;45.23;22.60;;;17.30;11.80;;;;;;5059109;28;46440;-63
2022/03/25 12:34:00;;;;;;;34.87;20.73;;;17.30;11.70;;;;;;5061258;28;46397;-63
2022/03/25 12:36:41;;;;;;;39.63;19.50;;;17.30;11.40;;;;;;5065394;28;46705;-63
2022/03/25 12:39:14;;;;;;;37.07;19.70;;;17.40;11.40;;;;;;5062743;28;45810;-63
2022/03/25 12:41:46;;;;;;;44.90;20.27;;;17.30;11.30;;;;;;5065734;28;46489;-63
2022/03/25 12:44:11;;;;;;;36.23;21.60;;;17.30;11.10;;;;;;5059686;28;46360;-63